sensor_id;sensor_type;location;lat;lon;timestamp;temperature;humidity
2465;DHT22;1244;54.326;10.074;2023-03-16T00:02:00;0.80;99.90
2465;DHT22;1244;54.326;10.074;2023-03-16T00:04:26;0.70;99.90
2465;DHT22;1244;54.326;10.074;2023-03-16T00:06:52;0.80;99.90
2465;DHT22;1244;54.326;10.074;2023-03-16T00:09:17;0.90;99.90
2465;DHT22;1244;54.326;10.074;2023-03-16T00:11:43;1.00;99.90
2465;DHT22;1244;54.326;10.074;2023-03-16T00:14:08;1.00;99.90
2465;DHT22;1244;54.326;10.074;2023-03-16T00:16:34;0.90;99.90
2465;DHT22;1244;54.326;10.074;2023-03-16T00:19:00;1.00;99.90
2465;DHT22;1244;54.326;10.074;2023-03-16T00:21:28;0.90;99.90
2465;DHT22;1244;54.326;10.074;2023-03-16T00:23:59;0.70;99.90
2465;DHT22;1244;54.326;10.074;2023-03-16T00:26:27;0.80;99.90
2465;DHT22;1244;54.326;10.074;2023-03-16T00:28:53;0.80;99.90
2465;DHT22;1244;54.326;10.074;2023-03-16T00:31:19;0.90;99.90
2465;DHT22;1244;54.326;10.074;2023-03-16T00:33:44;0.80;99.90
2465;DHT22;1244;54.326;10.074;2023-03-16T00:36:10;0.50;99.90
2465;DHT22;1244;54.326;10.074;2023-03-16T00:38:40;0.70;99.90
2465;DHT22;1244;54.326;10.074;2023-03-16T00:41:10;0.60;99.90
2465;DHT22;1244;54.326;10.074;2023-03-16T00:43:39;0.70;99.90
2465;DHT22;1244;54.326;10.074;2023-03-16T00:46:14;0.40;99.90
2465;DHT22;1244;54.326;10.074;2023-03-16T00:48:41;0.50;99.90
2465;DHT22;1244;54.326;10.074;2023-03-16T00:51:10;0.40;99.90
2465;DHT22;1244;54.326;10.074;2023-03-16T00:53:37;0.30;99.90
2465;DHT22;1244;54.326;10.074;2023-03-16T00:56:04;0.20;99.90
2465;DHT22;1244;54.326;10.074;2023-03-16T00:58:34;0.30;99.90
2465;DHT22;1244;54.326;10.074;2023-03-16T01:01:01;0.50;99.90
2465;DHT22;1244;54.326;10.074;2023-03-16T01:03:27;0.40;99.90
2465;DHT22;1244;54.326;10.074;2023-03-16T01:05:53;0.40;99.90
2465;DHT22;1244;54.326;10.074;2023-03-16T01:08:24;0.40;99.90
2465;DHT22;1244;54.326;10.074;2023-03-16T01:10:52;0.30;99.90
2465;DHT22;1244;54.326;10.074;2023-03-16T01:13:18;0.30;99.90
2465;DHT22;1244;54.326;10.074;2023-03-16T01:15:44;0.00;99.90
2465;DHT22;1244;54.326;10.074;2023-03-16T01:18:10;0.00;99.90
2465;DHT22;1244;54.326;10.074;2023-03-16T01:20:38;-0.20;99.90
2465;DHT22;1244;54.326;10.074;2023-03-16T01:23:03;0.00;99.90
2465;DHT22;1244;54.326;10.074;2023-03-16T01:25:29;0.00;99.90
2465;DHT22;1244;54.326;10.074;2023-03-16T01:27:54;0.20;99.90
2465;DHT22;1244;54.326;10.074;2023-03-16T01:30:20;0.30;99.90
2465;DHT22;1244;54.326;10.074;2023-03-16T01:32:45;0.10;99.90
2465;DHT22;1244;54.326;10.074;2023-03-16T01:35:11;0.50;99.90
2465;DHT22;1244;54.326;10.074;2023-03-16T01:37:37;0.30;99.90
2465;DHT22;1244;54.326;10.074;2023-03-16T01:40:03;0.00;99.90
2465;DHT22;1244;54.326;10.074;2023-03-16T01:42:31;-0.40;99.90
2465;DHT22;1244;54.326;10.074;2023-03-16T01:44:59;-0.20;99.90
2465;DHT22;1244;54.326;10.074;2023-03-16T01:47:30;-0.20;99.90
2465;DHT22;1244;54.326;10.074;2023-03-16T01:50:03;-0.20;99.90
2465;DHT22;1244;54.326;10.074;2023-03-16T01:52:32;-0.30;99.90
2465;DHT22;1244;54.326;10.074;2023-03-16T01:55:05;-0.30;99.90
2465;DHT22;1244;54.326;10.074;2023-03-16T01:57:37;0.20;99.90
2465;DHT22;1244;54.326;10.074;2023-03-16T02:00:11;0.00;99.90
2465;DHT22;1244;54.326;10.074;2023-03-16T02:02:46;0.00;99.90
2465;DHT22;1244;54.326;10.074;2023-03-16T02:05:15;0.20;99.90
2465;DHT22;1244;54.326;10.074;2023-03-16T02:07:46;0.30;99.90
2465;DHT22;1244;54.326;10.074;2023-03-16T02:10:14;0.50;99.90
2465;DHT22;1244;54.326;10.074;2023-03-16T02:12:40;0.30;99.90
2465;DHT22;1244;54.326;10.074;2023-03-16T02:15:06;0.40;99.90
2465;DHT22;1244;54.326;10.074;2023-03-16T02:17:33;0.30;99.90
2465;DHT22;1244;54.326;10.074;2023-03-16T02:22:51;0.10;99.90
2465;DHT22;1244;54.326;10.074;2023-03-16T02:25:48;0.20;99.90
2465;DHT22;1244;54.326;10.074;2023-03-16T02:28:24;0.20;99.90
2465;DHT22;1244;54.326;10.074;2023-03-16T02:30:51;0.40;99.90
2465;DHT22;1244;54.326;10.074;2023-03-16T02:33:18;0.40;99.90
2465;DHT22;1244;54.326;10.074;2023-03-16T02:35:45;0.20;99.90
2465;DHT22;1244;54.326;10.074;2023-03-16T02:38:11;0.30;99.90
2465;DHT22;1244;54.326;10.074;2023-03-16T02:40:36;0.50;99.90
2465;DHT22;1244;54.326;10.074;2023-03-16T02:43:10;0.40;99.90
2465;DHT22;1244;54.326;10.074;2023-03-16T02:45:42;0.40;99.90
2465;DHT22;1244;54.326;10.074;2023-03-16T02:48:15;0.40;99.90
2465;DHT22;1244;54.326;10.074;2023-03-16T02:50:47;0.50;99.90
2465;DHT22;1244;54.326;10.074;2023-03-16T02:53:17;0.50;99.90
2465;DHT22;1244;54.326;10.074;2023-03-16T02:55:43;0.30;99.90
2465;DHT22;1244;54.326;10.074;2023-03-16T02:58:09;0.30;99.90
2465;DHT22;1244;54.326;10.074;2023-03-16T03:00:36;0.30;99.90
2465;DHT22;1244;54.326;10.074;2023-03-16T03:03:03;0.50;99.90
2465;DHT22;1244;54.326;10.074;2023-03-16T03:05:29;0.40;99.90
2465;DHT22;1244;54.326;10.074;2023-03-16T03:07:55;0.50;99.90
2465;DHT22;1244;54.326;10.074;2023-03-16T03:10:21;0.40;99.90
2465;DHT22;1244;54.326;10.074;2023-03-16T03:12:46;0.50;99.90
2465;DHT22;1244;54.326;10.074;2023-03-16T03:15:14;0.60;99.90
2465;DHT22;1244;54.326;10.074;2023-03-16T03:17:40;0.40;99.90
2465;DHT22;1244;54.326;10.074;2023-03-16T03:20:07;0.30;99.90
2465;DHT22;1244;54.326;10.074;2023-03-16T03:22:40;0.40;99.90
2465;DHT22;1244;54.326;10.074;2023-03-16T03:25:05;0.40;99.90
2465;DHT22;1244;54.326;10.074;2023-03-16T03:27:31;0.30;99.90
2465;DHT22;1244;54.326;10.074;2023-03-16T03:29:57;0.50;99.90
2465;DHT22;1244;54.326;10.074;2023-03-16T03:32:23;0.20;99.90
2465;DHT22;1244;54.326;10.074;2023-03-16T03:34:49;0.50;99.90
2465;DHT22;1244;54.326;10.074;2023-03-16T03:37:14;0.40;99.90
2465;DHT22;1244;54.326;10.074;2023-03-16T03:39:40;0.20;99.90
2465;DHT22;1244;54.326;10.074;2023-03-16T03:42:06;0.20;99.90
2465;DHT22;1244;54.326;10.074;2023-03-16T03:44:31;0.20;99.90
2465;DHT22;1244;54.326;10.074;2023-03-16T03:46:59;0.20;99.90
2465;DHT22;1244;54.326;10.074;2023-03-16T03:49:25;0.30;99.90
2465;DHT22;1244;54.326;10.074;2023-03-16T03:51:50;0.40;99.90
2465;DHT22;1244;54.326;10.074;2023-03-16T03:54:16;0.50;99.90
2465;DHT22;1244;54.326;10.074;2023-03-16T03:56:41;0.40;99.90
2465;DHT22;1244;54.326;10.074;2023-03-16T03:59:07;0.60;99.90
2465;DHT22;1244;54.326;10.074;2023-03-16T04:01:33;0.60;99.90
2465;DHT22;1244;54.326;10.074;2023-03-16T04:03:58;0.30;99.90
2465;DHT22;1244;54.326;10.074;2023-03-16T04:06:24;0.50;99.90
2465;DHT22;1244;54.326;10.074;2023-03-16T04:08:49;0.60;99.90
2465;DHT22;1244;54.326;10.074;2023-03-16T04:11:15;0.50;99.90
2465;DHT22;1244;54.326;10.074;2023-03-16T04:13:41;0.70;99.90
2465;DHT22;1244;54.326;10.074;2023-03-16T04:16:07;0.70;99.90
2465;DHT22;1244;54.326;10.074;2023-03-16T04:18:33;0.70;99.90
2465;DHT22;1244;54.326;10.074;2023-03-16T04:21:06;0.60;99.90
2465;DHT22;1244;54.326;10.074;2023-03-16T04:23:32;0.80;99.90
2465;DHT22;1244;54.326;10.074;2023-03-16T04:25:59;0.80;99.90
2465;DHT22;1244;54.326;10.074;2023-03-16T04:28:24;0.80;99.90
2465;DHT22;1244;54.326;10.074;2023-03-16T04:30:52;0.80;99.90
2465;DHT22;1244;54.326;10.074;2023-03-16T04:33:20;0.70;99.90
2465;DHT22;1244;54.326;10.074;2023-03-16T04:35:47;0.60;99.90
2465;DHT22;1244;54.326;10.074;2023-03-16T04:38:12;0.60;99.90
2465;DHT22;1244;54.326;10.074;2023-03-16T04:40:38;0.50;99.90
2465;DHT22;1244;54.326;10.074;2023-03-16T04:43:03;0.30;99.90
2465;DHT22;1244;54.326;10.074;2023-03-16T04:45:29;0.40;99.90
2465;DHT22;1244;54.326;10.074;2023-03-16T04:47:54;0.30;99.90
2465;DHT22;1244;54.326;10.074;2023-03-16T04:50:20;0.20;99.90
2465;DHT22;1244;54.326;10.074;2023-03-16T04:52:47;0.10;99.90
2465;DHT22;1244;54.326;10.074;2023-03-16T04:55:12;0.20;99.90
2465;DHT22;1244;54.326;10.074;2023-03-16T04:57:38;0.20;99.90
2465;DHT22;1244;54.326;10.074;2023-03-16T05:00:04;0.20;99.90
2465;DHT22;1244;54.326;10.074;2023-03-16T05:02:39;0.50;99.90
2465;DHT22;1244;54.326;10.074;2023-03-16T05:05:06;0.40;99.90
2465;DHT22;1244;54.326;10.074;2023-03-16T05:07:31;0.60;99.90
2465;DHT22;1244;54.326;10.074;2023-03-16T05:09:57;0.60;99.90
2465;DHT22;1244;54.326;10.074;2023-03-16T05:12:22;0.40;99.90
2465;DHT22;1244;54.326;10.074;2023-03-16T05:14:48;0.40;99.90
2465;DHT22;1244;54.326;10.074;2023-03-16T05:17:13;0.30;99.90
2465;DHT22;1244;54.326;10.074;2023-03-16T05:19:39;0.50;99.90
2465;DHT22;1244;54.326;10.074;2023-03-16T05:22:06;0.40;99.90
2465;DHT22;1244;54.326;10.074;2023-03-16T05:24:32;0.20;99.90
2465;DHT22;1244;54.326;10.074;2023-03-16T05:26:58;0.20;99.90
2465;DHT22;1244;54.326;10.074;2023-03-16T05:29:23;0.50;99.90
2465;DHT22;1244;54.326;10.074;2023-03-16T05:31:50;0.50;99.90
2465;DHT22;1244;54.326;10.074;2023-03-16T05:34:15;0.30;99.90
2465;DHT22;1244;54.326;10.074;2023-03-16T05:36:41;0.40;99.90
2465;DHT22;1244;54.326;10.074;2023-03-16T05:39:09;0.40;99.90
2465;DHT22;1244;54.326;10.074;2023-03-16T05:41:35;0.70;99.90
2465;DHT22;1244;54.326;10.074;2023-03-16T05:44:00;0.60;99.90
2465;DHT22;1244;54.326;10.074;2023-03-16T05:46:26;0.60;99.90
2465;DHT22;1244;54.326;10.074;2023-03-16T05:48:51;0.50;99.90
2465;DHT22;1244;54.326;10.074;2023-03-16T05:51:17;0.50;99.90
2465;DHT22;1244;54.326;10.074;2023-03-16T05:53:42;0.80;99.90
2465;DHT22;1244;54.326;10.074;2023-03-16T05:56:11;0.80;99.90
2465;DHT22;1244;54.326;10.074;2023-03-16T05:58:36;0.80;99.90
2465;DHT22;1244;54.326;10.074;2023-03-16T06:01:02;0.90;99.90
2465;DHT22;1244;54.326;10.074;2023-03-16T06:03:29;0.80;99.90
2465;DHT22;1244;54.326;10.074;2023-03-16T06:05:55;0.80;99.90
2465;DHT22;1244;54.326;10.074;2023-03-16T06:08:21;0.80;99.90
2465;DHT22;1244;54.326;10.074;2023-03-16T06:10:47;1.00;99.90
2465;DHT22;1244;54.326;10.074;2023-03-16T06:13:13;1.00;99.90
2465;DHT22;1244;54.326;10.074;2023-03-16T06:15:39;1.20;99.90
2465;DHT22;1244;54.326;10.074;2023-03-16T06:18:05;1.30;99.90
2465;DHT22;1244;54.326;10.074;2023-03-16T06:20:30;1.20;99.90
2465;DHT22;1244;54.326;10.074;2023-03-16T06:22:56;1.30;99.90
2465;DHT22;1244;54.326;10.074;2023-03-16T06:25:21;1.30;99.90
2465;DHT22;1244;54.326;10.074;2023-03-16T06:27:48;1.40;99.90
2465;DHT22;1244;54.326;10.074;2023-03-16T06:30:14;1.50;99.90
2465;DHT22;1244;54.326;10.074;2023-03-16T06:32:40;1.50;99.90
2465;DHT22;1244;54.326;10.074;2023-03-16T06:35:07;1.70;99.90
2465;DHT22;1244;54.326;10.074;2023-03-16T06:37:34;1.70;99.90
2465;DHT22;1244;54.326;10.074;2023-03-16T06:40:00;1.70;99.90
2465;DHT22;1244;54.326;10.074;2023-03-16T06:42:25;1.80;99.90
2465;DHT22;1244;54.326;10.074;2023-03-16T06:44:51;1.90;99.90
2465;DHT22;1244;54.326;10.074;2023-03-16T06:47:17;1.90;99.90
2465;DHT22;1244;54.326;10.074;2023-03-16T06:49:42;2.00;99.90
2465;DHT22;1244;54.326;10.074;2023-03-16T06:52:08;2.10;99.90
2465;DHT22;1244;54.326;10.074;2023-03-16T06:54:35;2.10;99.90
2465;DHT22;1244;54.326;10.074;2023-03-16T06:57:02;2.10;99.90
2465;DHT22;1244;54.326;10.074;2023-03-16T06:59:28;2.20;99.90
2465;DHT22;1244;54.326;10.074;2023-03-16T07:01:54;2.20;99.90
2465;DHT22;1244;54.326;10.074;2023-03-16T07:04:20;2.10;99.90
2465;DHT22;1244;54.326;10.074;2023-03-16T07:06:45;2.30;99.90
2465;DHT22;1244;54.326;10.074;2023-03-16T07:09:11;2.30;99.90
2465;DHT22;1244;54.326;10.074;2023-03-16T07:11:37;2.40;99.90
2465;DHT22;1244;54.326;10.074;2023-03-16T07:14:03;2.30;99.90
2465;DHT22;1244;54.326;10.074;2023-03-16T07:16:29;2.40;99.90
2465;DHT22;1244;54.326;10.074;2023-03-16T07:18:54;2.30;99.90
2465;DHT22;1244;54.326;10.074;2023-03-16T07:21:20;2.40;99.90
2465;DHT22;1244;54.326;10.074;2023-03-16T07:23:46;2.50;99.90
2465;DHT22;1244;54.326;10.074;2023-03-16T07:26:12;2.60;99.90
2465;DHT22;1244;54.326;10.074;2023-03-16T07:28:38;2.70;99.90
2465;DHT22;1244;54.326;10.074;2023-03-16T07:31:05;2.60;99.90
2465;DHT22;1244;54.326;10.074;2023-03-16T07:33:32;2.70;99.90
2465;DHT22;1244;54.326;10.074;2023-03-16T07:35:58;2.80;99.90
2465;DHT22;1244;54.326;10.074;2023-03-16T07:38:23;2.80;99.90
2465;DHT22;1244;54.326;10.074;2023-03-16T07:40:49;2.90;99.90
2465;DHT22;1244;54.326;10.074;2023-03-16T07:43:16;3.00;99.90
2465;DHT22;1244;54.326;10.074;2023-03-16T07:45:46;2.80;99.90
2465;DHT22;1244;54.326;10.074;2023-03-16T07:48:12;3.00;99.90
2465;DHT22;1244;54.326;10.074;2023-03-16T07:50:38;2.90;99.90
2465;DHT22;1244;54.326;10.074;2023-03-16T07:53:03;2.70;99.90
2465;DHT22;1244;54.326;10.074;2023-03-16T07:55:29;2.90;99.90
2465;DHT22;1244;54.326;10.074;2023-03-16T07:57:56;3.00;99.90
2465;DHT22;1244;54.326;10.074;2023-03-16T08:00:21;2.90;99.90
2465;DHT22;1244;54.326;10.074;2023-03-16T08:02:48;2.90;99.90
2465;DHT22;1244;54.326;10.074;2023-03-16T08:05:14;3.20;99.90
2465;DHT22;1244;54.326;10.074;2023-03-16T08:07:40;3.10;99.90
2465;DHT22;1244;54.326;10.074;2023-03-16T08:10:06;3.30;99.90
2465;DHT22;1244;54.326;10.074;2023-03-16T08:12:32;3.30;99.90
2465;DHT22;1244;54.326;10.074;2023-03-16T08:14:58;3.40;99.90
2465;DHT22;1244;54.326;10.074;2023-03-16T08:17:23;3.60;99.90
2465;DHT22;1244;54.326;10.074;2023-03-16T08:19:49;3.80;99.90
2465;DHT22;1244;54.326;10.074;2023-03-16T08:22:14;3.90;99.90
2465;DHT22;1244;54.326;10.074;2023-03-16T08:24:40;3.90;99.90
2465;DHT22;1244;54.326;10.074;2023-03-16T08:27:06;4.00;99.90
2465;DHT22;1244;54.326;10.074;2023-03-16T08:29:32;3.90;99.90
2465;DHT22;1244;54.326;10.074;2023-03-16T08:32:02;3.90;99.90
2465;DHT22;1244;54.326;10.074;2023-03-16T08:34:28;3.90;99.90
2465;DHT22;1244;54.326;10.074;2023-03-16T08:36:54;4.10;99.90
2465;DHT22;1244;54.326;10.074;2023-03-16T08:39:20;4.10;99.90
2465;DHT22;1244;54.326;10.074;2023-03-16T08:41:45;4.20;99.90
2465;DHT22;1244;54.326;10.074;2023-03-16T08:44:12;4.20;99.90
2465;DHT22;1244;54.326;10.074;2023-03-16T08:46:38;4.20;99.90
2465;DHT22;1244;54.326;10.074;2023-03-16T08:49:04;4.30;99.90
2465;DHT22;1244;54.326;10.074;2023-03-16T08:51:31;4.30;99.90
2465;DHT22;1244;54.326;10.074;2023-03-16T08:53:57;4.30;99.90
2465;DHT22;1244;54.326;10.074;2023-03-16T08:56:23;4.40;99.90
2465;DHT22;1244;54.326;10.074;2023-03-16T08:58:49;4.40;99.90
2465;DHT22;1244;54.326;10.074;2023-03-16T09:01:18;4.50;99.90
2465;DHT22;1244;54.326;10.074;2023-03-16T09:03:44;4.70;99.90
2465;DHT22;1244;54.326;10.074;2023-03-16T09:06:13;4.80;99.90
2465;DHT22;1244;54.326;10.074;2023-03-16T09:08:39;4.90;99.90
2465;DHT22;1244;54.326;10.074;2023-03-16T09:11:11;4.90;99.90
2465;DHT22;1244;54.326;10.074;2023-03-16T09:13:37;4.90;99.90
2465;DHT22;1244;54.326;10.074;2023-03-16T09:16:04;4.90;99.90
2465;DHT22;1244;54.326;10.074;2023-03-16T09:18:31;4.80;99.90
2465;DHT22;1244;54.326;10.074;2023-03-16T09:20:58;4.90;99.90
2465;DHT22;1244;54.326;10.074;2023-03-16T09:23:24;4.90;99.90
2465;DHT22;1244;54.326;10.074;2023-03-16T09:25:50;4.90;99.90
2465;DHT22;1244;54.326;10.074;2023-03-16T09:28:17;5.00;99.90
2465;DHT22;1244;54.326;10.074;2023-03-16T09:30:43;5.00;99.90
2465;DHT22;1244;54.326;10.074;2023-03-16T09:33:09;5.00;99.90
2465;DHT22;1244;54.326;10.074;2023-03-16T09:35:34;5.10;99.90
2465;DHT22;1244;54.326;10.074;2023-03-16T09:38:01;5.20;99.90
2465;DHT22;1244;54.326;10.074;2023-03-16T09:40:28;5.30;99.90
2465;DHT22;1244;54.326;10.074;2023-03-16T09:45:54;5.60;99.90
2465;DHT22;1244;54.326;10.074;2023-03-16T09:48:25;5.70;99.90
2465;DHT22;1244;54.326;10.074;2023-03-16T09:50:53;5.80;99.90
2465;DHT22;1244;54.326;10.074;2023-03-16T09:53:38;5.80;99.90
2465;DHT22;1244;54.326;10.074;2023-03-16T09:56:10;5.90;99.90
2465;DHT22;1244;54.326;10.074;2023-03-16T09:58:37;6.00;99.90
2465;DHT22;1244;54.326;10.074;2023-03-16T10:01:37;6.10;99.90
2465;DHT22;1244;54.326;10.074;2023-03-16T10:04:26;6.70;99.90
2465;DHT22;1244;54.326;10.074;2023-03-16T10:07:03;7.20;99.90
2465;DHT22;1244;54.326;10.074;2023-03-16T10:09:49;7.60;99.90
2465;DHT22;1244;54.326;10.074;2023-03-16T10:12:17;8.10;99.90
2465;DHT22;1244;54.326;10.074;2023-03-16T10:14:48;7.70;99.90
2465;DHT22;1244;54.326;10.074;2023-03-16T10:17:39;7.70;99.90
2465;DHT22;1244;54.326;10.074;2023-03-16T10:20:13;7.80;99.90
2465;DHT22;1244;54.326;10.074;2023-03-16T10:22:44;7.60;99.90
2465;DHT22;1244;54.326;10.074;2023-03-16T10:25:22;7.50;99.90
2465;DHT22;1244;54.326;10.074;2023-03-16T10:27:50;7.30;99.90
2465;DHT22;1244;54.326;10.074;2023-03-16T10:30:36;7.20;99.90
2465;DHT22;1244;54.326;10.074;2023-03-16T10:33:14;7.10;99.90
2465;DHT22;1244;54.326;10.074;2023-03-16T10:35:47;7.10;99.90
2465;DHT22;1244;54.326;10.074;2023-03-16T10:38:50;7.30;99.90
2465;DHT22;1244;54.326;10.074;2023-03-16T10:41:32;7.30;99.90
2465;DHT22;1244;54.326;10.074;2023-03-16T10:46:42;7.50;99.90
2465;DHT22;1244;54.326;10.074;2023-03-16T10:49:27;8.10;99.90
2465;DHT22;1244;54.326;10.074;2023-03-16T10:51:58;8.10;99.90
2465;DHT22;1244;54.326;10.074;2023-03-16T10:54:35;7.90;99.90
2465;DHT22;1244;54.326;10.074;2023-03-16T10:59:54;7.50;99.90
2465;DHT22;1244;54.326;10.074;2023-03-16T11:02:30;7.70;99.90
2465;DHT22;1244;54.326;10.074;2023-03-16T11:04:56;7.70;99.90
2465;DHT22;1244;54.326;10.074;2023-03-16T11:07:22;7.50;99.90
2465;DHT22;1244;54.326;10.074;2023-03-16T11:09:50;7.40;99.90
2465;DHT22;1244;54.326;10.074;2023-03-16T11:12:30;7.70;99.90
2465;DHT22;1244;54.326;10.074;2023-03-16T11:15:12;7.60;99.90
2465;DHT22;1244;54.326;10.074;2023-03-16T11:17:44;7.60;99.90
2465;DHT22;1244;54.326;10.074;2023-03-16T11:20:31;8.00;99.90
2465;DHT22;1244;54.326;10.074;2023-03-16T11:22:58;8.00;99.90
2465;DHT22;1244;54.326;10.074;2023-03-16T11:25:41;8.20;99.90
2465;DHT22;1244;54.326;10.074;2023-03-16T11:28:15;8.10;99.90
2465;DHT22;1244;54.326;10.074;2023-03-16T11:33:20;8.30;99.90
2465;DHT22;1244;54.326;10.074;2023-03-16T11:39:18;8.30;99.90
2465;DHT22;1244;54.326;10.074;2023-03-16T11:47:00;8.60;99.90
2465;DHT22;1244;54.326;10.074;2023-03-16T12:02:00;8.20;99.90
2465;DHT22;1244;54.326;10.074;2023-03-16T12:04:10;8.10;99.90
2465;DHT22;1244;54.326;10.074;2023-03-16T12:10:07;8.10;99.90
2465;DHT22;1244;54.326;10.074;2023-03-16T12:15:34;8.20;99.90
2465;DHT22;1244;54.326;10.074;2023-03-16T12:18:22;8.20;99.90
2465;DHT22;1244;54.326;10.074;2023-03-16T12:20:57;8.20;99.90
2465;DHT22;1244;54.326;10.074;2023-03-16T12:23:51;8.30;99.90
2465;DHT22;1244;54.326;10.074;2023-03-16T12:26:18;8.40;99.90
2465;DHT22;1244;54.326;10.074;2023-03-16T12:28:45;8.50;99.90
2465;DHT22;1244;54.326;10.074;2023-03-16T12:31:22;8.70;99.90
2465;DHT22;1244;54.326;10.074;2023-03-16T12:36:49;8.80;99.90
2465;DHT22;1244;54.326;10.074;2023-03-16T12:39:30;8.80;99.90
2465;DHT22;1244;54.326;10.074;2023-03-16T12:42:18;9.00;99.90
2465;DHT22;1244;54.326;10.074;2023-03-16T12:47:53;9.60;99.90
2465;DHT22;1244;54.326;10.074;2023-03-16T12:50:22;9.80;99.90
2465;DHT22;1244;54.326;10.074;2023-03-16T12:52:51;10.20;99.90
2465;DHT22;1244;54.326;10.074;2023-03-16T12:57:48;9.90;99.90
2465;DHT22;1244;54.326;10.074;2023-03-16T13:00:15;10.00;99.90
2465;DHT22;1244;54.326;10.074;2023-03-16T13:02:49;9.70;99.90
2465;DHT22;1244;54.326;10.074;2023-03-16T13:05:26;9.50;99.90
2465;DHT22;1244;54.326;10.074;2023-03-16T13:10:29;9.20;99.90
2465;DHT22;1244;54.326;10.074;2023-03-16T13:13:07;9.00;99.90
2465;DHT22;1244;54.326;10.074;2023-03-16T13:15:32;9.00;99.90
2465;DHT22;1244;54.326;10.074;2023-03-16T13:25:44;9.00;99.90
2465;DHT22;1244;54.326;10.074;2023-03-16T13:28:28;8.80;99.90
2465;DHT22;1244;54.326;10.074;2023-03-16T13:30:54;8.80;99.90
2465;DHT22;1244;54.326;10.074;2023-03-16T13:33:22;9.10;99.90
2465;DHT22;1244;54.326;10.074;2023-03-16T13:35:51;9.30;99.90
2465;DHT22;1244;54.326;10.074;2023-03-16T13:38:18;9.30;99.90
2465;DHT22;1244;54.326;10.074;2023-03-16T13:40:47;9.20;99.90
2465;DHT22;1244;54.326;10.074;2023-03-16T13:43:18;9.20;99.90
2465;DHT22;1244;54.326;10.074;2023-03-16T13:45:45;9.50;99.90
2465;DHT22;1244;54.326;10.074;2023-03-16T13:48:13;9.70;99.90
2465;DHT22;1244;54.326;10.074;2023-03-16T13:50:40;9.60;99.90
2465;DHT22;1244;54.326;10.074;2023-03-16T13:53:15;9.80;99.90
2465;DHT22;1244;54.326;10.074;2023-03-16T13:55:45;10.00;99.90
2465;DHT22;1244;54.326;10.074;2023-03-16T13:58:19;9.80;99.90
2465;DHT22;1244;54.326;10.074;2023-03-16T14:00:46;9.60;99.90
2465;DHT22;1244;54.326;10.074;2023-03-16T14:03:17;9.30;99.90
2465;DHT22;1244;54.326;10.074;2023-03-16T14:05:44;9.30;99.90
2465;DHT22;1244;54.326;10.074;2023-03-16T14:08:21;9.10;99.90
2465;DHT22;1244;54.326;10.074;2023-03-16T14:10:48;9.00;99.90
2465;DHT22;1244;54.326;10.074;2023-03-16T14:16:12;8.90;99.90
2465;DHT22;1244;54.326;10.074;2023-03-16T14:18:42;8.80;99.90
2465;DHT22;1244;54.326;10.074;2023-03-16T14:21:23;8.80;99.90
2465;DHT22;1244;54.326;10.074;2023-03-16T14:23:59;8.80;99.90
2465;DHT22;1244;54.326;10.074;2023-03-16T14:26:26;8.80;99.90
2465;DHT22;1244;54.326;10.074;2023-03-16T14:29:06;8.80;99.90
2465;DHT22;1244;54.326;10.074;2023-03-16T14:31:37;8.90;99.90
2465;DHT22;1244;54.326;10.074;2023-03-16T14:34:19;8.80;99.90
2465;DHT22;1244;54.326;10.074;2023-03-16T14:36:45;8.90;99.90
2465;DHT22;1244;54.326;10.074;2023-03-16T14:39:13;8.80;99.90
2465;DHT22;1244;54.326;10.074;2023-03-16T14:41:41;8.70;99.90
2465;DHT22;1244;54.326;10.074;2023-03-16T14:44:28;8.60;99.90
2465;DHT22;1244;54.326;10.074;2023-03-16T14:46:56;8.60;99.90
2465;DHT22;1244;54.326;10.074;2023-03-16T14:49:26;8.60;99.90
2465;DHT22;1244;54.326;10.074;2023-03-16T14:51:54;8.60;99.90
2465;DHT22;1244;54.326;10.074;2023-03-16T14:54:22;8.50;99.90
2465;DHT22;1244;54.326;10.074;2023-03-16T14:56:50;8.50;99.90
2465;DHT22;1244;54.326;10.074;2023-03-16T14:59:16;8.40;98.80
2465;DHT22;1244;54.326;10.074;2023-03-16T15:01:41;8.40;99.40
2465;DHT22;1244;54.326;10.074;2023-03-16T15:04:12;8.40;99.10
2465;DHT22;1244;54.326;10.074;2023-03-16T15:06:38;8.40;97.20
2465;DHT22;1244;54.326;10.074;2023-03-16T15:09:05;8.30;97.00
2465;DHT22;1244;54.326;10.074;2023-03-16T15:11:32;8.30;97.10
2465;DHT22;1244;54.326;10.074;2023-03-16T15:13:58;8.30;96.60
2465;DHT22;1244;54.326;10.074;2023-03-16T15:16:39;8.30;97.20
2465;DHT22;1244;54.326;10.074;2023-03-16T15:19:05;8.30;97.20
2465;DHT22;1244;54.326;10.074;2023-03-16T15:21:31;8.20;98.10
2465;DHT22;1244;54.326;10.074;2023-03-16T15:23:57;8.20;97.10
2465;DHT22;1244;54.326;10.074;2023-03-16T15:26:24;8.20;97.30
2465;DHT22;1244;54.326;10.074;2023-03-16T15:28:52;8.20;97.70
2465;DHT22;1244;54.326;10.074;2023-03-16T15:31:17;8.10;98.40
2465;DHT22;1244;54.326;10.074;2023-03-16T15:33:43;8.10;99.10
2465;DHT22;1244;54.326;10.074;2023-03-16T15:36:20;8.10;98.20
2465;DHT22;1244;54.326;10.074;2023-03-16T15:38:52;8.10;99.20
2465;DHT22;1244;54.326;10.074;2023-03-16T15:41:18;8.10;98.70
2465;DHT22;1244;54.326;10.074;2023-03-16T15:43:44;8.10;99.70
2465;DHT22;1244;54.326;10.074;2023-03-16T15:46:13;8.10;99.80
2465;DHT22;1244;54.326;10.074;2023-03-16T15:48:39;8.00;99.90
2465;DHT22;1244;54.326;10.074;2023-03-16T15:51:20;8.00;99.70
2465;DHT22;1244;54.326;10.074;2023-03-16T15:53:53;7.90;99.20
2465;DHT22;1244;54.326;10.074;2023-03-16T15:56:23;7.90;99.70
2465;DHT22;1244;54.326;10.074;2023-03-16T15:59:01;7.90;99.90
2465;DHT22;1244;54.326;10.074;2023-03-16T16:01:30;7.90;99.90
2465;DHT22;1244;54.326;10.074;2023-03-16T16:04:00;7.90;99.90
2465;DHT22;1244;54.326;10.074;2023-03-16T16:06:25;7.90;99.90
2465;DHT22;1244;54.326;10.074;2023-03-16T16:08:52;7.90;99.90
2465;DHT22;1244;54.326;10.074;2023-03-16T16:11:22;7.80;99.90
2465;DHT22;1244;54.326;10.074;2023-03-16T16:13:48;7.80;99.90
2465;DHT22;1244;54.326;10.074;2023-03-16T16:16:16;7.80;99.90
2465;DHT22;1244;54.326;10.074;2023-03-16T16:18:42;7.80;99.90
2465;DHT22;1244;54.326;10.074;2023-03-16T16:21:19;7.80;99.90
2465;DHT22;1244;54.326;10.074;2023-03-16T16:23:46;7.80;99.90
2465;DHT22;1244;54.326;10.074;2023-03-16T16:26:37;7.80;99.90
2465;DHT22;1244;54.326;10.074;2023-03-16T16:29:12;7.80;99.90
2465;DHT22;1244;54.326;10.074;2023-03-16T16:31:38;7.80;99.90
2465;DHT22;1244;54.326;10.074;2023-03-16T16:34:10;7.80;99.90
2465;DHT22;1244;54.326;10.074;2023-03-16T16:36:35;7.80;99.90
2465;DHT22;1244;54.326;10.074;2023-03-16T16:39:01;7.70;99.90
2465;DHT22;1244;54.326;10.074;2023-03-16T16:41:28;7.70;99.90
2465;DHT22;1244;54.326;10.074;2023-03-16T16:43:55;7.60;99.90
2465;DHT22;1244;54.326;10.074;2023-03-16T16:46:26;7.60;99.90
2465;DHT22;1244;54.326;10.074;2023-03-16T16:51:34;7.50;99.90
2465;DHT22;1244;54.326;10.074;2023-03-16T16:54:00;7.50;99.90
2465;DHT22;1244;54.326;10.074;2023-03-16T16:56:28;7.50;99.90
2465;DHT22;1244;54.326;10.074;2023-03-16T16:58:56;7.50;99.90
2465;DHT22;1244;54.326;10.074;2023-03-16T17:01:26;7.50;99.90
2465;DHT22;1244;54.326;10.074;2023-03-16T17:03:53;7.50;99.90
2465;DHT22;1244;54.326;10.074;2023-03-16T17:06:19;7.50;99.90
2465;DHT22;1244;54.326;10.074;2023-03-16T17:08:45;7.50;99.90
2465;DHT22;1244;54.326;10.074;2023-03-16T17:11:20;7.40;99.90
2465;DHT22;1244;54.326;10.074;2023-03-16T17:13:48;7.40;99.90
2465;DHT22;1244;54.326;10.074;2023-03-16T17:16:15;7.30;99.90
2465;DHT22;1244;54.326;10.074;2023-03-16T17:18:42;7.30;99.90